sensor_id;sensor_type;location;lat;lon;timestamp;P1;durP1;ratioP1;P2;durP2;ratioP2
10761;SDS011;5433;50.862;4.320;2023-01-26T00:01:49;80.97;;;24.77;;
10761;SDS011;5433;50.862;4.320;2023-01-26T00:04:15;80.60;;;25.23;;
10761;SDS011;5433;50.862;4.320;2023-01-26T00:06:41;79.80;;;25.88;;
10761;SDS011;5433;50.862;4.320;2023-01-26T00:09:09;81.50;;;25.90;;
10761;SDS011;5433;50.862;4.320;2023-01-26T00:11:36;79.20;;;24.83;;
10761;SDS011;5433;50.862;4.320;2023-01-26T00:14:03;79.72;;;23.73;;
10761;SDS011;5433;50.862;4.320;2023-01-26T00:16:29;76.82;;;24.63;;
10761;SDS011;5433;50.862;4.320;2023-01-26T00:18:55;79.45;;;25.05;;
10761;SDS011;5433;50.862;4.320;2023-01-26T00:21:22;72.53;;;24.50;;
10761;SDS011;5433;50.862;4.320;2023-01-26T00:23:48;82.22;;;25.42;;
10761;SDS011;5433;50.862;4.320;2023-01-26T00:26:16;87.97;;;26.05;;
10761;SDS011;5433;50.862;4.320;2023-01-26T00:28:42;85.10;;;25.85;;
10761;SDS011;5433;50.862;4.320;2023-01-26T00:31:10;81.00;;;23.75;;
10761;SDS011;5433;50.862;4.320;2023-01-26T00:33:37;79.70;;;24.73;;
10761;SDS011;5433;50.862;4.320;2023-01-26T00:36:03;82.20;;;24.63;;
10761;SDS011;5433;50.862;4.320;2023-01-26T00:38:29;86.20;;;25.75;;
10761;SDS011;5433;50.862;4.320;2023-01-26T00:40:58;79.80;;;24.25;;
10761;SDS011;5433;50.862;4.320;2023-01-26T00:43:25;83.50;;;26.05;;
10761;SDS011;5433;50.862;4.320;2023-01-26T00:45:51;83.03;;;25.30;;
10761;SDS011;5433;50.862;4.320;2023-01-26T00:48:17;80.75;;;24.50;;
10761;SDS011;5433;50.862;4.320;2023-01-26T00:50:43;88.82;;;26.10;;
10761;SDS011;5433;50.862;4.320;2023-01-26T00:53:09;85.80;;;25.08;;
10761;SDS011;5433;50.862;4.320;2023-01-26T00:55:35;80.53;;;24.85;;
10761;SDS011;5433;50.862;4.320;2023-01-26T00:58:02;81.15;;;25.27;;
10761;SDS011;5433;50.862;4.320;2023-01-26T01:00:29;79.35;;;25.42;;
10761;SDS011;5433;50.862;4.320;2023-01-26T01:02:56;81.65;;;25.17;;
10761;SDS011;5433;50.862;4.320;2023-01-26T01:05:23;87.28;;;26.50;;
10761;SDS011;5433;50.862;4.320;2023-01-26T01:07:49;86.85;;;26.20;;
10761;SDS011;5433;50.862;4.320;2023-01-26T01:10:15;87.05;;;26.92;;
10761;SDS011;5433;50.862;4.320;2023-01-26T01:12:41;83.45;;;25.95;;
10761;SDS011;5433;50.862;4.320;2023-01-26T01:15:07;86.97;;;26.95;;
10761;SDS011;5433;50.862;4.320;2023-01-26T01:17:33;77.32;;;24.20;;
10761;SDS011;5433;50.862;4.320;2023-01-26T01:20:03;83.95;;;26.67;;
10761;SDS011;5433;50.862;4.320;2023-01-26T01:22:30;78.07;;;25.08;;
10761;SDS011;5433;50.862;4.320;2023-01-26T01:24:56;89.72;;;27.15;;
10761;SDS011;5433;50.862;4.320;2023-01-26T01:27:22;81.72;;;25.52;;
10761;SDS011;5433;50.862;4.320;2023-01-26T01:29:48;83.10;;;26.05;;
10761;SDS011;5433;50.862;4.320;2023-01-26T01:32:14;79.18;;;26.50;;
10761;SDS011;5433;50.862;4.320;2023-01-26T01:34:40;84.07;;;27.33;;
10761;SDS011;5433;50.862;4.320;2023-01-26T01:37:06;78.38;;;25.23;;
10761;SDS011;5433;50.862;4.320;2023-01-26T01:39:32;88.70;;;27.30;;
10761;SDS011;5433;50.862;4.320;2023-01-26T01:41:58;82.22;;;26.40;;
10761;SDS011;5433;50.862;4.320;2023-01-26T01:44:25;85.38;;;26.48;;
10761;SDS011;5433;50.862;4.320;2023-01-26T01:51:50;84.88;;;26.90;;
10761;SDS011;5433;50.862;4.320;2023-01-26T01:54:18;77.38;;;25.25;;
10761;SDS011;5433;50.862;4.320;2023-01-26T01:56:47;84.40;;;26.05;;
10761;SDS011;5433;50.862;4.320;2023-01-26T01:59:14;79.30;;;25.77;;
10761;SDS011;5433;50.862;4.320;2023-01-26T02:01:44;81.28;;;25.25;;
10761;SDS011;5433;50.862;4.320;2023-01-26T02:04:11;80.53;;;25.55;;
10761;SDS011;5433;50.862;4.320;2023-01-26T02:06:51;76.60;;;26.05;;
10761;SDS011;5433;50.862;4.320;2023-01-26T02:09:20;80.82;;;24.98;;
10761;SDS011;5433;50.862;4.320;2023-01-26T02:12:06;84.18;;;25.38;;
10761;SDS011;5433;50.862;4.320;2023-01-26T02:14:34;75.47;;;24.90;;
10761;SDS011;5433;50.862;4.320;2023-01-26T02:17:00;79.88;;;24.92;;
10761;SDS011;5433;50.862;4.320;2023-01-26T02:22:13;78.85;;;24.95;;
10761;SDS011;5433;50.862;4.320;2023-01-26T02:24:41;79.10;;;25.73;;
10761;SDS011;5433;50.862;4.320;2023-01-26T02:27:07;81.45;;;25.75;;
10761;SDS011;5433;50.862;4.320;2023-01-26T02:29:33;88.22;;;25.75;;
10761;SDS011;5433;50.862;4.320;2023-01-26T02:31:59;93.60;;;26.80;;
10761;SDS011;5433;50.862;4.320;2023-01-26T02:34:25;80.35;;;24.30;;
10761;SDS011;5433;50.862;4.320;2023-01-26T02:36:59;82.05;;;25.10;;
10761;SDS011;5433;50.862;4.320;2023-01-26T02:39:36;90.32;;;25.63;;
10761;SDS011;5433;50.862;4.320;2023-01-26T02:42:03;79.75;;;25.05;;
10761;SDS011;5433;50.862;4.320;2023-01-26T02:44:47;76.63;;;23.95;;
10761;SDS011;5433;50.862;4.320;2023-01-26T02:47:15;82.78;;;26.05;;
10761;SDS011;5433;50.862;4.320;2023-01-26T02:49:41;89.88;;;25.77;;
10761;SDS011;5433;50.862;4.320;2023-01-26T02:52:18;82.45;;;25.85;;
10761;SDS011;5433;50.862;4.320;2023-01-26T02:54:44;81.30;;;24.48;;
10761;SDS011;5433;50.862;4.320;2023-01-26T02:57:29;78.10;;;25.42;;
10761;SDS011;5433;50.862;4.320;2023-01-26T02:59:56;79.80;;;25.13;;
10761;SDS011;5433;50.862;4.320;2023-01-26T03:02:22;78.40;;;25.02;;
10761;SDS011;5433;50.862;4.320;2023-01-26T03:04:49;78.45;;;25.50;;
10761;SDS011;5433;50.862;4.320;2023-01-26T03:07:15;75.18;;;24.50;;
10761;SDS011;5433;50.862;4.320;2023-01-26T03:09:41;82.82;;;25.65;;
10761;SDS011;5433;50.862;4.320;2023-01-26T03:12:07;76.85;;;24.75;;
10761;SDS011;5433;50.862;4.320;2023-01-26T03:14:33;82.68;;;24.90;;
10761;SDS011;5433;50.862;4.320;2023-01-26T03:16:59;73.97;;;25.27;;
10761;SDS011;5433;50.862;4.320;2023-01-26T03:19:25;82.38;;;24.15;;
10761;SDS011;5433;50.862;4.320;2023-01-26T03:22:23;79.68;;;24.20;;
10761;SDS011;5433;50.862;4.320;2023-01-26T03:25:08;82.53;;;24.83;;
10761;SDS011;5433;50.862;4.320;2023-01-26T03:27:53;77.22;;;23.35;;
10761;SDS011;5433;50.862;4.320;2023-01-26T03:30:19;75.85;;;24.20;;
10761;SDS011;5433;50.862;4.320;2023-01-26T03:32:45;70.78;;;23.90;;
10761;SDS011;5433;50.862;4.320;2023-01-26T03:35:11;71.25;;;23.27;;
10761;SDS011;5433;50.862;4.320;2023-01-26T03:37:42;67.97;;;22.30;;
10761;SDS011;5433;50.862;4.320;2023-01-26T03:40:09;66.70;;;22.30;;
10761;SDS011;5433;50.862;4.320;2023-01-26T03:42:55;64.15;;;22.08;;
10761;SDS011;5433;50.862;4.320;2023-01-26T03:45:40;75.72;;;23.30;;
10761;SDS011;5433;50.862;4.320;2023-01-26T03:48:25;75.53;;;24.83;;
10761;SDS011;5433;50.862;4.320;2023-01-26T03:51:10;70.45;;;23.23;;
10761;SDS011;5433;50.862;4.320;2023-01-26T03:53:54;70.45;;;22.35;;
10761;SDS011;5433;50.862;4.320;2023-01-26T03:56:39;60.88;;;21.13;;
10761;SDS011;5433;50.862;4.320;2023-01-26T03:59:05;71.75;;;22.48;;
10761;SDS011;5433;50.862;4.320;2023-01-26T04:01:33;66.50;;;21.98;;
10761;SDS011;5433;50.862;4.320;2023-01-26T04:03:59;65.85;;;21.77;;
10761;SDS011;5433;50.862;4.320;2023-01-26T04:06:45;62.80;;;21.30;;
10761;SDS011;5433;50.862;4.320;2023-01-26T04:09:30;59.33;;;20.25;;
10761;SDS011;5433;50.862;4.320;2023-01-26T04:11:56;64.63;;;21.52;;
10761;SDS011;5433;50.862;4.320;2023-01-26T04:14:22;59.30;;;20.17;;
10761;SDS011;5433;50.862;4.320;2023-01-26T04:17:06;59.92;;;20.58;;
10761;SDS011;5433;50.862;4.320;2023-01-26T04:19:51;61.28;;;20.20;;
10761;SDS011;5433;50.862;4.320;2023-01-26T04:22:36;59.58;;;20.90;;
10761;SDS011;5433;50.862;4.320;2023-01-26T04:25:16;60.90;;;20.25;;
10761;SDS011;5433;50.862;4.320;2023-01-26T04:27:42;62.08;;;21.15;;
10761;SDS011;5433;50.862;4.320;2023-01-26T04:30:10;60.20;;;20.92;;
10761;SDS011;5433;50.862;4.320;2023-01-26T04:32:36;66.30;;;21.20;;
10761;SDS011;5433;50.862;4.320;2023-01-26T04:35:03;62.97;;;21.30;;
10761;SDS011;5433;50.862;4.320;2023-01-26T04:37:30;64.07;;;20.45;;
10761;SDS011;5433;50.862;4.320;2023-01-26T04:39:56;66.15;;;21.33;;
10761;SDS011;5433;50.862;4.320;2023-01-26T04:42:23;69.53;;;21.35;;
10761;SDS011;5433;50.862;4.320;2023-01-26T04:44:50;67.00;;;22.42;;
10761;SDS011;5433;50.862;4.320;2023-01-26T04:47:16;68.22;;;21.40;;
10761;SDS011;5433;50.862;4.320;2023-01-26T04:49:42;59.75;;;21.30;;
10761;SDS011;5433;50.862;4.320;2023-01-26T04:52:08;67.22;;;21.20;;
10761;SDS011;5433;50.862;4.320;2023-01-26T04:54:34;60.80;;;21.77;;
10761;SDS011;5433;50.862;4.320;2023-01-26T04:57:00;61.30;;;20.45;;
10761;SDS011;5433;50.862;4.320;2023-01-26T04:59:26;66.53;;;21.48;;
10761;SDS011;5433;50.862;4.320;2023-01-26T05:01:52;58.05;;;19.75;;
10761;SDS011;5433;50.862;4.320;2023-01-26T05:04:18;61.70;;;19.67;;
10761;SDS011;5433;50.862;4.320;2023-01-26T05:06:44;61.35;;;19.98;;
10761;SDS011;5433;50.862;4.320;2023-01-26T05:09:11;58.33;;;19.58;;
10761;SDS011;5433;50.862;4.320;2023-01-26T05:11:37;60.03;;;19.05;;
10761;SDS011;5433;50.862;4.320;2023-01-26T05:14:03;56.10;;;18.80;;
10761;SDS011;5433;50.862;4.320;2023-01-26T05:16:29;52.67;;;18.65;;
10761;SDS011;5433;50.862;4.320;2023-01-26T05:18:55;60.05;;;19.02;;
10761;SDS011;5433;50.862;4.320;2023-01-26T05:21:21;48.47;;;18.25;;
10761;SDS011;5433;50.862;4.320;2023-01-26T05:23:49;51.53;;;17.90;;
10761;SDS011;5433;50.862;4.320;2023-01-26T05:26:15;54.88;;;18.50;;
10761;SDS011;5433;50.862;4.320;2023-01-26T05:28:41;49.30;;;17.95;;
10761;SDS011;5433;50.862;4.320;2023-01-26T05:31:07;50.67;;;18.83;;
10761;SDS011;5433;50.862;4.320;2023-01-26T05:33:33;49.72;;;18.02;;
10761;SDS011;5433;50.862;4.320;2023-01-26T05:36:02;52.45;;;18.85;;
10761;SDS011;5433;50.862;4.320;2023-01-26T05:38:28;52.67;;;18.08;;
10761;SDS011;5433;50.862;4.320;2023-01-26T05:40:54;50.85;;;18.13;;
10761;SDS011;5433;50.862;4.320;2023-01-26T05:43:20;51.00;;;17.67;;
10761;SDS011;5433;50.862;4.320;2023-01-26T05:45:46;50.88;;;17.40;;
10761;SDS011;5433;50.862;4.320;2023-01-26T05:48:12;50.78;;;18.02;;
10761;SDS011;5433;50.862;4.320;2023-01-26T05:50:38;50.75;;;17.65;;
10761;SDS011;5433;50.862;4.320;2023-01-26T05:53:04;48.13;;;16.20;;
10761;SDS011;5433;50.862;4.320;2023-01-26T05:55:31;45.30;;;16.38;;
10761;SDS011;5433;50.862;4.320;2023-01-26T05:57:57;42.72;;;15.98;;
10761;SDS011;5433;50.862;4.320;2023-01-26T06:00:23;48.05;;;17.83;;
10761;SDS011;5433;50.862;4.320;2023-01-26T06:02:49;47.05;;;16.85;;
10761;SDS011;5433;50.862;4.320;2023-01-26T06:05:15;44.13;;;15.95;;
10761;SDS011;5433;50.862;4.320;2023-01-26T06:07:41;42.53;;;14.90;;
10761;SDS011;5433;50.862;4.320;2023-01-26T06:10:07;44.17;;;14.77;;
10761;SDS011;5433;50.862;4.320;2023-01-26T06:12:34;40.33;;;15.27;;
10761;SDS011;5433;50.862;4.320;2023-01-26T06:15:02;41.05;;;14.63;;
10761;SDS011;5433;50.862;4.320;2023-01-26T06:17:29;41.47;;;14.88;;
10761;SDS011;5433;50.862;4.320;2023-01-26T06:19:55;41.92;;;16.02;;
10761;SDS011;5433;50.862;4.320;2023-01-26T06:22:21;39.90;;;15.48;;
10761;SDS011;5433;50.862;4.320;2023-01-26T06:24:47;42.60;;;15.50;;
10761;SDS011;5433;50.862;4.320;2023-01-26T06:27:14;40.08;;;14.40;;
10761;SDS011;5433;50.862;4.320;2023-01-26T06:29:40;38.63;;;14.38;;
10761;SDS011;5433;50.862;4.320;2023-01-26T06:32:07;41.22;;;15.13;;
10761;SDS011;5433;50.862;4.320;2023-01-26T06:34:33;34.95;;;13.52;;
10761;SDS011;5433;50.862;4.320;2023-01-26T06:36:59;45.10;;;15.35;;
10761;SDS011;5433;50.862;4.320;2023-01-26T06:39:25;41.72;;;15.40;;
10761;SDS011;5433;50.862;4.320;2023-01-26T06:41:51;43.10;;;15.60;;
10761;SDS011;5433;50.862;4.320;2023-01-26T06:44:17;40.00;;;14.10;;
10761;SDS011;5433;50.862;4.320;2023-01-26T06:46:43;37.13;;;14.27;;
10761;SDS011;5433;50.862;4.320;2023-01-26T06:49:09;34.47;;;13.27;;
10761;SDS011;5433;50.862;4.320;2023-01-26T06:51:42;38.17;;;13.52;;
10761;SDS011;5433;50.862;4.320;2023-01-26T06:54:09;37.58;;;13.38;;
10761;SDS011;5433;50.862;4.320;2023-01-26T06:56:35;36.55;;;13.80;;
10761;SDS011;5433;50.862;4.320;2023-01-26T06:59:01;42.83;;;14.68;;
10761;SDS011;5433;50.862;4.320;2023-01-26T07:01:27;36.00;;;14.63;;
10761;SDS011;5433;50.862;4.320;2023-01-26T07:03:56;39.55;;;14.20;;
10761;SDS011;5433;50.862;4.320;2023-01-26T07:06:22;37.45;;;14.02;;
10761;SDS011;5433;50.862;4.320;2023-01-26T07:08:48;37.95;;;13.65;;
10761;SDS011;5433;50.862;4.320;2023-01-26T07:11:14;34.13;;;12.90;;
10761;SDS011;5433;50.862;4.320;2023-01-26T07:13:41;38.15;;;14.15;;
10761;SDS011;5433;50.862;4.320;2023-01-26T07:16:09;37.50;;;13.75;;
10761;SDS011;5433;50.862;4.320;2023-01-26T07:18:35;35.38;;;14.48;;
10761;SDS011;5433;50.862;4.320;2023-01-26T07:23:27;36.78;;;13.55;;
10761;SDS011;5433;50.862;4.320;2023-01-26T07:25:53;34.80;;;13.10;;
10761;SDS011;5433;50.862;4.320;2023-01-26T07:28:19;36.17;;;13.57;;
10761;SDS011;5433;50.862;4.320;2023-01-26T07:30:46;33.83;;;13.48;;
10761;SDS011;5433;50.862;4.320;2023-01-26T07:33:12;36.55;;;13.88;;
10761;SDS011;5433;50.862;4.320;2023-01-26T07:35:38;38.20;;;13.35;;
10761;SDS011;5433;50.862;4.320;2023-01-26T07:38:05;35.30;;;13.27;;
10761;SDS011;5433;50.862;4.320;2023-01-26T07:40:31;37.30;;;13.70;;
10761;SDS011;5433;50.862;4.320;2023-01-26T07:42:58;34.75;;;13.48;;
10761;SDS011;5433;50.862;4.320;2023-01-26T07:45:24;35.65;;;13.73;;
10761;SDS011;5433;50.862;4.320;2023-01-26T07:47:53;32.72;;;13.13;;
10761;SDS011;5433;50.862;4.320;2023-01-26T07:50:19;35.55;;;13.10;;
10761;SDS011;5433;50.862;4.320;2023-01-26T07:52:45;37.63;;;13.02;;
10761;SDS011;5433;50.862;4.320;2023-01-26T07:55:11;40.33;;;15.00;;
10761;SDS011;5433;50.862;4.320;2023-01-26T07:57:38;41.42;;;14.38;;
10761;SDS011;5433;50.862;4.320;2023-01-26T08:00:05;42.88;;;14.57;;
10761;SDS011;5433;50.862;4.320;2023-01-26T08:02:31;41.53;;;15.15;;
10761;SDS011;5433;50.862;4.320;2023-01-26T08:04:57;43.95;;;14.85;;
10761;SDS011;5433;50.862;4.320;2023-01-26T08:07:24;41.47;;;14.70;;
10761;SDS011;5433;50.862;4.320;2023-01-26T08:09:50;40.90;;;14.95;;
10761;SDS011;5433;50.862;4.320;2023-01-26T08:12:16;41.40;;;14.55;;
10761;SDS011;5433;50.862;4.320;2023-01-26T08:14:42;43.35;;;15.05;;
10761;SDS011;5433;50.862;4.320;2023-01-26T08:17:08;39.63;;;14.57;;
10761;SDS011;5433;50.862;4.320;2023-01-26T08:19:34;45.13;;;15.02;;
10761;SDS011;5433;50.862;4.320;2023-01-26T08:22:00;45.95;;;15.18;;
10761;SDS011;5433;50.862;4.320;2023-01-26T08:24:26;275.10;;;90.28;;
10761;SDS011;5433;50.862;4.320;2023-01-26T08:26:52;135.02;;;43.47;;
10761;SDS011;5433;50.862;4.320;2023-01-26T08:29:18;64.80;;;23.92;;
10761;SDS011;5433;50.862;4.320;2023-01-26T08:31:45;44.22;;;15.10;;
10761;SDS011;5433;50.862;4.320;2023-01-26T08:34:11;41.35;;;14.98;;
10761;SDS011;5433;50.862;4.320;2023-01-26T08:36:38;156.23;;;47.50;;
10761;SDS011;5433;50.862;4.320;2023-01-26T08:39:04;85.90;;;26.00;;
10761;SDS011;5433;50.862;4.320;2023-01-26T08:41:30;44.95;;;15.35;;
10761;SDS011;5433;50.862;4.320;2023-01-26T08:43:57;78.22;;;28.23;;
10761;SDS011;5433;50.862;4.320;2023-01-26T08:46:23;46.63;;;17.10;;
10761;SDS011;5433;50.862;4.320;2023-01-26T08:48:50;39.10;;;14.50;;
10761;SDS011;5433;50.862;4.320;2023-01-26T08:51:16;39.97;;;15.20;;
10761;SDS011;5433;50.862;4.320;2023-01-26T08:53:42;49.75;;;20.30;;
10761;SDS011;5433;50.862;4.320;2023-01-26T08:56:09;55.35;;;22.20;;
10761;SDS011;5433;50.862;4.320;2023-01-26T08:58:35;40.25;;;18.75;;
10761;SDS011;5433;50.862;4.320;2023-01-26T09:01:05;101.20;;;58.15;;
10761;SDS011;5433;50.862;4.320;2023-01-26T09:03:31;55.03;;;30.05;;
10761;SDS011;5433;50.862;4.320;2023-01-26T09:05:58;39.80;;;15.93;;
10761;SDS011;5433;50.862;4.320;2023-01-26T09:08:24;35.08;;;15.75;;
10761;SDS011;5433;50.862;4.320;2023-01-26T09:10:50;31.92;;;14.50;;
10761;SDS011;5433;50.862;4.320;2023-01-26T09:13:16;44.30;;;20.58;;
10761;SDS011;5433;50.862;4.320;2023-01-26T09:15:42;37.75;;;19.45;;
10761;SDS011;5433;50.862;4.320;2023-01-26T09:18:09;33.28;;;15.98;;
10761;SDS011;5433;50.862;4.320;2023-01-26T09:20:38;28.75;;;12.10;;
10761;SDS011;5433;50.862;4.320;2023-01-26T09:23:05;31.58;;;13.88;;
10761;SDS011;5433;50.862;4.320;2023-01-26T09:25:31;41.90;;;22.00;;
10761;SDS011;5433;50.862;4.320;2023-01-26T09:28:01;35.17;;;16.38;;
10761;SDS011;5433;50.862;4.320;2023-01-26T09:30:27;41.20;;;19.65;;
10761;SDS011;5433;50.862;4.320;2023-01-26T09:32:56;27.10;;;13.20;;
10761;SDS011;5433;50.862;4.320;2023-01-26T09:35:23;32.30;;;13.70;;
10761;SDS011;5433;50.862;4.320;2023-01-26T09:37:49;29.42;;;13.93;;
10761;SDS011;5433;50.862;4.320;2023-01-26T09:40:16;28.50;;;12.45;;
10761;SDS011;5433;50.862;4.320;2023-01-26T09:42:48;33.40;;;15.63;;
10761;SDS011;5433;50.862;4.320;2023-01-26T09:45:38;39.65;;;20.23;;
10761;SDS011;5433;50.862;4.320;2023-01-26T09:48:11;31.70;;;15.27;;
10761;SDS011;5433;50.862;4.320;2023-01-26T09:50:40;33.08;;;13.75;;
10761;SDS011;5433;50.862;4.320;2023-01-26T09:53:15;26.50;;;12.20;;
10761;SDS011;5433;50.862;4.320;2023-01-26T09:55:44;31.13;;;15.02;;
10761;SDS011;5433;50.862;4.320;2023-01-26T09:58:12;33.80;;;16.77;;
10761;SDS011;5433;50.862;4.320;2023-01-26T10:00:47;33.47;;;13.73;;
10761;SDS011;5433;50.862;4.320;2023-01-26T10:03:29;37.20;;;19.58;;
10761;SDS011;5433;50.862;4.320;2023-01-26T10:06:19;58.15;;;34.55;;
10761;SDS011;5433;50.862;4.320;2023-01-26T10:08:46;38.50;;;17.90;;
10761;SDS011;5433;50.862;4.320;2023-01-26T10:11:20;37.50;;;21.20;;
10761;SDS011;5433;50.862;4.320;2023-01-26T10:13:50;29.55;;;14.70;;
10761;SDS011;5433;50.862;4.320;2023-01-26T10:16:18;39.28;;;16.20;;
10761;SDS011;5433;50.862;4.320;2023-01-26T10:21:21;37.03;;;15.00;;
10761;SDS011;5433;50.862;4.320;2023-01-26T10:23:49;32.72;;;14.57;;
10761;SDS011;5433;50.862;4.320;2023-01-26T10:26:16;31.92;;;14.45;;
10761;SDS011;5433;50.862;4.320;2023-01-26T10:28:44;36.58;;;15.50;;
10761;SDS011;5433;50.862;4.320;2023-01-26T10:31:11;34.58;;;14.88;;
10761;SDS011;5433;50.862;4.320;2023-01-26T10:33:38;33.55;;;14.90;;
10761;SDS011;5433;50.862;4.320;2023-01-26T10:36:06;40.72;;;15.52;;
10761;SDS011;5433;50.862;4.320;2023-01-26T10:38:37;34.10;;;14.90;;
10761;SDS011;5433;50.862;4.320;2023-01-26T10:41:22;34.40;;;14.75;;
10761;SDS011;5433;50.862;4.320;2023-01-26T10:49:01;49.15;;;16.73;;
10761;SDS011;5433;50.862;4.320;2023-01-26T10:51:31;42.85;;;15.50;;
10761;SDS011;5433;50.862;4.320;2023-01-26T10:54:14;45.53;;;16.02;;
10761;SDS011;5433;50.862;4.320;2023-01-26T10:56:52;43.78;;;15.88;;
10761;SDS011;5433;50.862;4.320;2023-01-26T10:59:33;44.17;;;15.90;;
10761;SDS011;5433;50.862;4.320;2023-01-26T11:07:27;43.55;;;16.58;;
10761;SDS011;5433;50.862;4.320;2023-01-26T11:09:53;54.40;;;18.30;;
10761;SDS011;5433;50.862;4.320;2023-01-26T11:12:23;46.92;;;17.10;;
10761;SDS011;5433;50.862;4.320;2023-01-26T11:15:00;46.08;;;17.60;;
10761;SDS011;5433;50.862;4.320;2023-01-26T11:17:37;54.38;;;18.10;;
10761;SDS011;5433;50.862;4.320;2023-01-26T11:22:36;55.47;;;18.45;;
10761;SDS011;5433;50.862;4.320;2023-01-26T11:25:14;57.72;;;18.52;;
10761;SDS011;5433;50.862;4.320;2023-01-26T11:27:45;55.55;;;18.55;;
10761;SDS011;5433;50.862;4.320;2023-01-26T11:33:22;65.20;;;18.42;;
10761;SDS011;5433;50.862;4.320;2023-01-26T11:35:51;52.92;;;18.05;;
10761;SDS011;5433;50.862;4.320;2023-01-26T11:59:24;108.43;;;38.08;;
10761;SDS011;5433;50.862;4.320;2023-01-26T12:02:00;98.10;;;32.55;;
10761;SDS011;5433;50.862;4.320;2023-01-26T12:04:28;120.68;;;36.00;;
10761;SDS011;5433;50.862;4.320;2023-01-26T12:07:03;49.63;;;18.95;;
10761;SDS011;5433;50.862;4.320;2023-01-26T12:09:35;51.35;;;18.15;;
10761;SDS011;5433;50.862;4.320;2023-01-26T12:12:03;143.35;;;47.47;;
10761;SDS011;5433;50.862;4.320;2023-01-26T12:24:56;93.40;;;39.75;;
10761;SDS011;5433;50.862;4.320;2023-01-26T12:27:25;84.30;;;31.48;;
10761;SDS011;5433;50.862;4.320;2023-01-26T12:29:55;89.63;;;38.05;;
10761;SDS011;5433;50.862;4.320;2023-01-26T12:32:26;45.90;;;16.52;;
10761;SDS011;5433;50.862;4.320;2023-01-26T12:34:52;39.42;;;13.38;;
10761;SDS011;5433;50.862;4.320;2023-01-26T12:39:49;47.70;;;14.13;;
10761;SDS011;5433;50.862;4.320;2023-01-26T12:44:53;44.38;;;13.02;;
10761;SDS011;5433;50.862;4.320;2023-01-26T12:47:39;30.63;;;12.15;;
10761;SDS011;5433;50.862;4.320;2023-01-26T12:50:26;34.67;;;11.32;;
10761;SDS011;5433;50.862;4.320;2023-01-26T12:53:00;39.80;;;15.10;;
10761;SDS011;5433;50.862;4.320;2023-01-26T12:58:01;33.42;;;11.10;;
10761;SDS011;5433;50.862;4.320;2023-01-26T13:00:29;25.60;;;8.88;;
10761;SDS011;5433;50.862;4.320;2023-01-26T13:03:00;42.72;;;10.45;;
10761;SDS011;5433;50.862;4.320;2023-01-26T13:05:29;27.70;;;6.95;;
10761;SDS011;5433;50.862;4.320;2023-01-26T13:07:56;25.40;;;7.07;;
10761;SDS011;5433;50.862;4.320;2023-01-26T13:10:23;27.55;;;6.60;;
10761;SDS011;5433;50.862;4.320;2023-01-26T13:12:51;19.33;;;6.07;;
10761;SDS011;5433;50.862;4.320;2023-01-26T13:15:18;25.10;;;6.05;;
10761;SDS011;5433;50.862;4.320;2023-01-26T13:20:19;21.73;;;5.78;;
10761;SDS011;5433;50.862;4.320;2023-01-26T13:22:47;22.95;;;6.22;;
10761;SDS011;5433;50.862;4.320;2023-01-26T13:25:32;21.98;;;5.03;;
10761;SDS011;5433;50.862;4.320;2023-01-26T13:28:02;21.42;;;5.60;;
10761;SDS011;5433;50.862;4.320;2023-01-26T13:30:33;16.45;;;4.43;;
10761;SDS011;5433;50.862;4.320;2023-01-26T13:33:16;19.95;;;3.65;;
10761;SDS011;5433;50.862;4.320;2023-01-26T13:35:43;13.55;;;2.75;;
10761;SDS011;5433;50.862;4.320;2023-01-26T13:38:12;16.63;;;3.80;;
10761;SDS011;5433;50.862;4.320;2023-01-26T13:40:41;11.95;;;3.13;;
10761;SDS011;5433;50.862;4.320;2023-01-26T13:48:16;17.15;;;2.83;;
10761;SDS011;5433;50.862;4.320;2023-01-26T13:50:45;9.68;;;2.55;;
10761;SDS011;5433;50.862;4.320;2023-01-26T13:56:00;14.40;;;2.08;;
10761;SDS011;5433;50.862;4.320;2023-01-26T13:58:27;11.48;;;1.95;;
10761;SDS011;5433;50.862;4.320;2023-01-26T14:00:56;11.27;;;3.58;;
10761;SDS011;5433;50.862;4.320;2023-01-26T14:03:23;6.97;;;1.60;;
10761;SDS011;5433;50.862;4.320;2023-01-26T14:05:50;11.23;;;2.38;;
10761;SDS011;5433;50.862;4.320;2023-01-26T14:08:17;9.70;;;2.17;;
10761;SDS011;5433;50.862;4.320;2023-01-26T14:10:46;8.57;;;2.00;;
10761;SDS011;5433;50.862;4.320;2023-01-26T14:13:18;8.52;;;2.08;;
10761;SDS011;5433;50.862;4.320;2023-01-26T14:15:45;7.78;;;1.90;;
10761;SDS011;5433;50.862;4.320;2023-01-26T14:18:20;7.65;;;2.30;;
10761;SDS011;5433;50.862;4.320;2023-01-26T14:20:46;11.35;;;2.50;;
10761;SDS011;5433;50.862;4.320;2023-01-26T14:25:39;13.02;;;2.78;;
10761;SDS011;5433;50.862;4.320;2023-01-26T14:28:10;13.55;;;2.85;;
10761;SDS011;5433;50.862;4.320;2023-01-26T14:30:37;10.68;;;2.60;;
10761;SDS011;5433;50.862;4.320;2023-01-26T14:33:05;13.43;;;2.45;;
10761;SDS011;5433;50.862;4.320;2023-01-26T14:35:32;7.63;;;2.08;;
10761;SDS011;5433;50.862;4.320;2023-01-26T14:38:10;14.80;;;2.53;;
10761;SDS011;5433;50.862;4.320;2023-01-26T14:43:11;22.75;;;11.15;;
10761;SDS011;5433;50.862;4.320;2023-01-26T14:45:37;9.63;;;2.60;;
10761;SDS011;5433;50.862;4.320;2023-01-26T14:48:06;9.52;;;2.20;;
10761;SDS011;5433;50.862;4.320;2023-01-26T14:50:33;13.48;;;1.95;;
10761;SDS011;5433;50.862;4.320;2023-01-26T14:53:00;11.00;;;2.33;;
10761;SDS011;5433;50.862;4.320;2023-01-26T14:55:29;7.07;;;2.25;;
10761;SDS011;5433;50.862;4.320;2023-01-26T14:57:56;14.90;;;2.30;;
10761;SDS011;5433;50.862;4.320;2023-01-26T15:00:26;15.27;;;2.83;;
10761;SDS011;5433;50.862;4.320;2023-01-26T15:02:54;15.20;;;5.60;;
10761;SDS011;5433;50.862;4.320;2023-01-26T15:05:21;13.35;;;2.38;;
10761;SDS011;5433;50.862;4.320;2023-01-26T15:07:58;14.18;;;2.60;;
10761;SDS011;5433;50.862;4.320;2023-01-26T15:10:35;10.85;;;2.60;;
10761;SDS011;5433;50.862;4.320;2023-01-26T15:15:44;12.02;;;3.20;;
10761;SDS011;5433;50.862;4.320;2023-01-26T15:23:17;12.85;;;2.65;;
10761;SDS011;5433;50.862;4.320;2023-01-26T15:25:44;47.80;;;26.35;;
10761;SDS011;5433;50.862;4.320;2023-01-26T15:28:11;12.93;;;3.40;;
10761;SDS011;5433;50.862;4.320;2023-01-26T15:30:44;13.50;;;2.50;;
10761;SDS011;5433;50.862;4.320;2023-01-26T15:35:56;14.35;;;3.45;;
10761;SDS011;5433;50.862;4.320;2023-01-26T15:38:22;21.35;;;7.95;;
10761;SDS011;5433;50.862;4.320;2023-01-26T15:40:48;9.15;;;2.45;;
10761;SDS011;5433;50.862;4.320;2023-01-26T15:43:17;19.48;;;8.88;;
10761;SDS011;5433;50.862;4.320;2023-01-26T15:45:54;14.23;;;6.93;;
10761;SDS011;5433;50.862;4.320;2023-01-26T15:48:20;16.55;;;9.10;;
10761;SDS011;5433;50.862;4.320;2023-01-26T15:50:47;53.08;;;38.30;;
10761;SDS011;5433;50.862;4.320;2023-01-26T15:53:13;11.80;;;3.50;;
10761;SDS011;5433;50.862;4.320;2023-01-26T15:55:40;19.65;;;6.63;;
10761;SDS011;5433;50.862;4.320;2023-01-26T15:58:06;16.15;;;5.72;;
10761;SDS011;5433;50.862;4.320;2023-01-26T16:00:32;10.48;;;3.40;;
10761;SDS011;5433;50.862;4.320;2023-01-26T16:02:59;12.68;;;5.55;;
10761;SDS011;5433;50.862;4.320;2023-01-26T16:05:27;20.55;;;9.60;;
10761;SDS011;5433;50.862;4.320;2023-01-26T16:07:53;64.15;;;30.67;;
10761;SDS011;5433;50.862;4.320;2023-01-26T16:10:19;15.70;;;7.50;;
10761;SDS011;5433;50.862;4.320;2023-01-26T16:12:45;12.88;;;3.33;;
10761;SDS011;5433;50.862;4.320;2023-01-26T16:15:37;18.23;;;9.43;;
10761;SDS011;5433;50.862;4.320;2023-01-26T16:18:03;13.35;;;4.43;;
10761;SDS011;5433;50.862;4.320;2023-01-26T16:20:29;11.57;;;4.00;;
10761;SDS011;5433;50.862;4.320;2023-01-26T16:22:55;11.05;;;3.03;;